CZEM/ZEM METAR and TAF weather

Enter ICAO airport designator
Station Type Date Time Source
CZEM METAR 2020/09/27 17:00 UTC NOAA

CZEM 271700Z 09009KT 5SM -RA BR BKN014 OVC030 14/14 A2932 RMK SF6SC2 SLP931 DENSITY ALT 600FT


Station Type Date Time Source
CZEM Decoded METAR 2020/09/27 17:00 UTC NOAA

Eastmain River Airport, Canada (CZEM) 52-14N 078-31W
Sep 27, 2020 - 01:00 PM EDT / 2020.09.27 1700 UTC
Wind: from the E (090 degrees) at 10 MPH (9 KT):0
Visibility: 5 mile(s):0
Sky conditions: overcast
Weather: light rain; mist
Temperature: 57 F (14 C)
Dew Point: 57 F (14 C)
Relative Humidity: 100%
Pressure (altimeter): 29.32 in. Hg (992 hPa)
ob: CZEM 271700Z 09009KT 5SM -RA BR BKN014 OVC030 14/14 A2932 RMK SF6SC2 SLP931 DENSITY ALT 600FT
cycle: 17

Station Type Date Time Source
CZEM TAF UTC NOAA

Error!

Example: see airport list